createdAt,value
2023-04-03T00:01:00.234Z,18.28
2023-04-03T00:04:01.903Z,18.26
2023-04-03T00:07:03.448Z,18.25
2023-04-03T00:10:05.503Z,18.24
2023-04-03T00:13:07.674Z,18.23
2023-04-03T00:16:09.741Z,18.20
2023-04-03T00:19:12.848Z,18.20
2023-04-03T00:22:14.375Z,18.18
2023-04-03T00:25:15.991Z,18.18
2023-04-03T00:28:17.365Z,18.17
2023-04-03T00:31:18.865Z,18.15
2023-04-03T00:34:20.686Z,18.13
2023-04-03T00:37:22.105Z,18.12
2023-04-03T00:40:25.531Z,18.10
2023-04-03T00:43:28.173Z,18.09
2023-04-03T00:46:29.694Z,18.08
2023-04-03T00:49:31.267Z,18.06
2023-04-03T00:52:32.837Z,18.06
2023-04-03T00:55:36.326Z,18.06
2023-04-03T00:58:44.493Z,18.02
2023-04-03T01:01:46.007Z,18.00
2023-04-03T01:04:48.251Z,18.00
2023-04-03T01:07:51.221Z,17.99
2023-04-03T01:10:52.685Z,17.97
2023-04-03T01:13:56.573Z,17.98
2023-04-03T01:16:59.625Z,17.97
2023-04-03T01:20:19.886Z,17.96
2023-04-03T01:23:33.650Z,17.96
2023-04-03T01:26:36.598Z,17.95
2023-04-03T01:29:38.294Z,17.95
2023-04-03T01:32:39.773Z,17.94
2023-04-03T01:35:41.226Z,17.94
2023-04-03T01:38:42.645Z,17.93
2023-04-03T01:41:44.127Z,17.93
2023-04-03T01:44:50.968Z,17.90
2023-04-03T01:47:52.406Z,17.90
2023-04-03T01:50:54.479Z,17.89
2023-04-03T01:53:56.158Z,17.88
2023-04-03T01:56:57.613Z,17.87
2023-04-03T01:59:59.187Z,17.86
2023-04-03T02:03:01.372Z,17.85
2023-04-03T02:06:02.926Z,17.84
2023-04-03T02:09:05.005Z,17.82
2023-04-03T02:12:06.615Z,17.81
2023-04-03T02:15:08.538Z,17.80
2023-04-03T02:18:10.451Z,17.79
2023-04-03T02:21:11.871Z,17.77
2023-04-03T02:24:13.321Z,17.77
2023-04-03T02:27:14.877Z,17.75
2023-04-03T02:30:16.471Z,17.74
2023-04-03T02:33:18.755Z,17.73
2023-04-03T02:36:20.523Z,17.72
2023-04-03T02:39:27.954Z,17.70
2023-04-03T02:42:30.639Z,17.70
2023-04-03T02:45:32.133Z,17.69
2023-04-03T02:48:33.841Z,17.68
2023-04-03T02:51:35.334Z,17.67
2023-04-03T02:54:36.785Z,17.66
2023-04-03T02:57:41.298Z,17.64
2023-04-03T03:00:43.177Z,17.64
2023-04-03T03:03:44.598Z,17.63
2023-04-03T03:06:47.412Z,17.63
2023-04-03T03:09:48.961Z,17.63
2023-04-03T03:12:50.701Z,17.64
2023-04-03T03:15:52.558Z,17.65
2023-04-03T03:18:53.962Z,17.68
2023-04-03T03:21:55.355Z,17.68
2023-04-03T03:24:57.672Z,17.71
2023-04-03T03:27:59.059Z,17.73
2023-04-03T03:31:01.319Z,17.74
2023-04-03T03:34:02.809Z,17.75
2023-04-03T03:37:04.250Z,17.76
2023-04-03T03:40:06.192Z,17.76
2023-04-03T03:43:07.733Z,17.76
2023-04-03T03:46:09.574Z,17.76
2023-04-03T03:49:12.300Z,17.75
2023-04-03T03:52:14.104Z,17.74
2023-04-03T03:55:15.912Z,17.74
2023-04-03T03:58:17.742Z,17.73
2023-04-03T04:01:19.377Z,17.72
2023-04-03T04:04:26.206Z,17.71
2023-04-03T04:07:29.143Z,17.69
2023-04-03T04:10:31.612Z,17.66
2023-04-03T04:13:33.693Z,17.63
2023-04-03T04:16:35.926Z,17.60
2023-04-03T04:19:43.543Z,17.58
2023-04-03T04:22:45.054Z,17.54
2023-04-03T04:25:48.193Z,17.47
2023-04-03T04:28:50.317Z,17.45
2023-04-03T04:31:53.546Z,17.44
2023-04-03T04:34:56.924Z,17.43
2023-04-03T04:37:58.578Z,17.42
2023-04-03T04:41:00.324Z,17.42
2023-04-03T04:44:01.865Z,17.41
2023-04-03T04:47:03.679Z,17.41
2023-04-03T04:50:05.394Z,17.42
2023-04-03T04:53:07.754Z,17.42
2023-04-03T04:56:09.197Z,17.42
2023-04-03T04:59:12.152Z,17.43
2023-04-03T05:02:13.681Z,17.45
2023-04-03T05:05:17.696Z,17.48
2023-04-03T05:08:19.131Z,17.50
2023-04-03T05:11:21.233Z,17.50
2023-04-03T05:14:26.934Z,17.49
2023-04-03T05:17:30.338Z,17.49
2023-04-03T05:20:33.645Z,17.48
2023-04-03T05:23:35.196Z,17.47
2023-04-03T05:26:38.884Z,17.46
2023-04-03T05:29:45.217Z,17.42
2023-04-03T05:32:49.968Z,17.39
2023-04-03T05:36:05.667Z,17.31
2023-04-03T05:39:10.684Z,17.01
2023-04-03T05:42:18.122Z,16.69
2023-04-03T05:45:19.850Z,16.40
2023-04-03T05:48:21.624Z,16.17
2023-04-03T05:51:26.813Z,16.18
2023-04-03T05:54:31.043Z,16.30
2023-04-03T05:57:51.263Z,16.43
2023-04-03T06:00:53.038Z,16.55
2023-04-03T06:03:55.190Z,16.64
2023-04-03T06:06:58.330Z,16.72
2023-04-03T06:10:01.366Z,16.78
2023-04-03T06:13:03.137Z,16.82
2023-04-03T06:16:05.285Z,16.85
2023-04-03T06:19:07.750Z,16.89
2023-04-03T06:22:09.130Z,16.92
2023-04-03T06:25:11.112Z,16.95
2023-04-03T06:28:13.435Z,16.97
2023-04-03T06:31:14.904Z,17.00
2023-04-03T06:34:16.964Z,17.00
2023-04-03T06:37:19.393Z,17.00
2023-04-03T06:40:23.420Z,17.02
2023-04-03T06:43:25.357Z,17.00
2023-04-03T06:46:27.541Z,17.02
2023-04-03T06:49:29.857Z,17.01
2023-04-03T06:52:31.577Z,17.01
2023-04-03T06:55:33.130Z,17.01
2023-04-03T06:58:34.544Z,17.02
2023-04-03T07:01:36.124Z,17.02
2023-04-03T07:04:37.578Z,17.02
2023-04-03T07:07:39.333Z,17.01
2023-04-03T07:10:40.898Z,17.01
2023-04-03T07:13:42.294Z,17.00
2023-04-03T07:16:43.770Z,17.00
2023-04-03T07:19:45.209Z,16.99
2023-04-03T07:22:46.654Z,16.98
2023-04-03T07:25:48.716Z,16.97
2023-04-03T07:28:50.814Z,16.93
2023-04-03T07:31:52.364Z,16.91
2023-04-03T07:34:53.830Z,16.90
2023-04-03T07:37:55.254Z,16.91
2023-04-03T07:40:56.783Z,16.93
2023-04-03T07:43:58.535Z,16.93
2023-04-03T07:47:00.836Z,16.95
2023-04-03T07:50:02.565Z,16.95
2023-04-03T07:53:04.373Z,16.95
2023-04-03T07:56:05.884Z,16.96
2023-04-03T07:59:07.676Z,16.95
2023-04-03T08:02:12.478Z,16.98
2023-04-03T08:05:14.170Z,17.00
2023-04-03T08:08:21.299Z,17.02
2023-04-03T08:11:24.633Z,17.02
2023-04-03T08:14:26.161Z,17.03
2023-04-03T08:17:27.589Z,17.04
2023-04-03T08:20:29.002Z,17.05
2023-04-03T08:23:30.370Z,17.05
2023-04-03T08:26:31.956Z,17.05
2023-04-03T08:29:33.762Z,17.06
2023-04-03T08:32:37.053Z,17.05
2023-04-03T08:35:42.446Z,17.06
2023-04-03T08:38:44.106Z,17.05
2023-04-03T08:41:47.890Z,17.06
2023-04-03T08:45:04.560Z,17.05
2023-04-03T08:48:08.326Z,17.05
2023-04-03T08:51:15.876Z,17.06
2023-04-03T08:54:38.144Z,17.06
2023-04-03T08:57:45.323Z,17.06
2023-04-03T09:00:49.800Z,17.05
2023-04-03T09:03:51.771Z,17.06
2023-04-03T09:07:00.979Z,17.06
2023-04-03T09:10:03.933Z,17.09
2023-04-03T09:13:21.316Z,17.07
2023-04-03T09:16:29.073Z,17.09
2023-04-03T09:19:33.670Z,17.08
2023-04-03T09:22:45.704Z,17.09
2023-04-03T09:25:57.662Z,17.09
2023-04-03T09:29:01.695Z,17.09
2023-04-03T09:32:09.940Z,17.09
2023-04-03T09:35:23.409Z,17.09
2023-04-03T09:38:32.250Z,17.10
2023-04-03T09:41:34.223Z,17.10
2023-04-03T09:44:37.701Z,17.09
2023-04-03T09:47:39.513Z,17.10
2023-04-03T09:51:00.350Z,17.09
2023-04-03T09:54:22.072Z,17.10
2023-04-03T09:57:23.550Z,17.11
2023-04-03T10:00:29.240Z,17.10
2023-04-03T10:03:34.556Z,17.09
2023-04-03T10:06:41.655Z,17.11
2023-04-03T10:09:55.125Z,17.13
2023-04-03T10:13:07.414Z,17.14
2023-04-03T10:16:15.936Z,17.15
2023-04-03T10:19:34.426Z,17.17
2023-04-03T10:22:41.710Z,17.20
2023-04-03T10:25:50.080Z,17.21
2023-04-03T10:29:27.104Z,17.24
2023-04-03T10:32:31.389Z,17.27
2023-04-03T10:35:32.825Z,17.31
2023-04-03T10:38:44.348Z,17.30
2023-04-03T10:42:09.393Z,17.32
2023-04-03T10:45:31.728Z,17.34
2023-04-03T10:48:39.190Z,17.36
2023-04-03T10:51:46.447Z,17.38
2023-04-03T10:55:03.242Z,17.38
2023-04-03T10:58:05.777Z,17.38
2023-04-03T11:01:10.008Z,17.40
2023-04-03T11:04:12.678Z,17.42
2023-04-03T11:07:17.731Z,17.45
2023-04-03T11:10:25.132Z,17.48
2023-04-03T11:13:26.506Z,17.49
2023-04-03T11:16:30.606Z,17.48
2023-04-03T11:19:42.725Z,17.46
2023-04-03T11:22:46.187Z,17.47
2023-04-03T11:25:50.390Z,17.47
2023-04-03T11:28:59.416Z,17.45
2023-04-03T11:32:00.866Z,17.46
2023-04-03T11:35:05.682Z,17.46
2023-04-03T11:38:07.487Z,17.46
2023-04-03T11:41:11.469Z,17.46
2023-04-03T11:44:31.968Z,17.44
2023-04-03T11:47:47.037Z,17.44
2023-04-03T11:50:49.046Z,17.43
2023-04-03T11:53:50.485Z,17.43
2023-04-03T11:56:51.899Z,17.42
2023-04-03T11:59:53.308Z,17.36
2023-04-03T12:02:55.179Z,17.31
2023-04-03T12:06:06.412Z,17.28
2023-04-03T12:09:26.452Z,17.25
2023-04-03T12:12:33.268Z,17.21
2023-04-03T12:15:37.953Z,17.19
2023-04-03T12:18:43.860Z,17.17
2023-04-03T12:21:52.987Z,17.13
2023-04-03T12:24:54.524Z,17.13
2023-04-03T12:27:55.990Z,17.11
2023-04-03T12:30:57.487Z,17.09
2023-04-03T12:34:17.689Z,17.09
2023-04-03T12:37:31.369Z,17.07
2023-04-03T12:40:32.766Z,17.08
2023-04-03T12:43:46.332Z,17.10
2023-04-03T12:46:51.803Z,17.12
2023-04-03T12:49:54.023Z,17.12
2023-04-03T12:52:58.467Z,17.13
2023-04-03T12:56:19.931Z,17.15
2023-04-03T12:59:25.911Z,17.16
2023-04-03T13:02:29.084Z,17.15
2023-04-03T13:05:31.738Z,17.14
2023-04-03T13:08:33.351Z,17.13
2023-04-03T13:11:39.464Z,17.12
2023-04-03T13:14:57.646Z,17.12
2023-04-03T13:17:59.130Z,17.11
2023-04-03T13:21:14.821Z,17.11
2023-04-03T13:24:16.493Z,17.10
2023-04-03T13:27:18.347Z,17.08
2023-04-03T13:30:29.006Z,17.08
2023-04-03T13:33:34.748Z,17.09
2023-04-03T13:36:37.747Z,17.08
2023-04-03T13:39:39.842Z,17.08
2023-04-03T13:42:42.278Z,17.08
2023-04-03T13:45:54.675Z,17.07
2023-04-03T13:48:57.296Z,17.06
2023-04-03T13:52:07.342Z,17.04
2023-04-03T13:55:24.602Z,17.05
2023-04-03T13:58:29.268Z,17.03
2023-04-03T14:01:36.580Z,17.05
2023-04-03T14:04:38.149Z,17.03
2023-04-03T14:07:39.516Z,17.01
2023-04-03T14:10:41.508Z,17.01
2023-04-03T14:13:43.591Z,16.99
2023-04-03T14:16:46.902Z,16.99
2023-04-03T14:19:49.206Z,16.97
2023-04-03T14:22:52.118Z,16.97
2023-04-03T14:25:53.953Z,16.97
2023-04-03T14:28:56.444Z,16.97
2023-04-03T14:32:11.631Z,16.98
2023-04-03T14:35:16.350Z,17.00
2023-04-03T14:38:28.230Z,17.01
2023-04-03T14:41:29.769Z,17.04
2023-04-03T14:44:31.617Z,17.07
2023-04-03T14:47:33.290Z,17.09
2023-04-03T14:50:34.719Z,17.14
2023-04-03T14:53:39.275Z,17.18
2023-04-03T14:56:41.217Z,17.19
2023-04-03T14:59:43.172Z,17.20
2023-04-03T15:02:45.288Z,17.22
2023-04-03T15:05:47.763Z,17.25
2023-04-03T15:08:49.249Z,17.28
2023-04-03T15:11:51.728Z,17.31
2023-04-03T15:15:00.866Z,17.30
2023-04-03T15:18:04.460Z,17.31
2023-04-03T15:21:06.527Z,17.32
2023-04-03T15:24:07.916Z,17.33
2023-04-03T15:27:10.006Z,17.36
2023-04-03T15:30:15.993Z,17.37
2023-04-03T15:33:17.631Z,17.39
2023-04-03T15:39:25.832Z,17.41
2023-04-03T15:42:27.257Z,17.42
2023-04-03T15:45:31.942Z,17.42
2023-04-03T15:48:33.498Z,17.42
2023-04-03T15:51:35.015Z,17.43
2023-04-03T15:54:36.467Z,17.43
2023-04-03T16:00:44.263Z,17.45
2023-04-03T16:03:46.418Z,17.45
2023-04-03T16:06:48.151Z,17.45
2023-04-03T16:09:49.602Z,17.43
2023-04-03T16:12:51.071Z,17.43
2023-04-03T16:15:52.510Z,17.42
2023-04-03T16:18:54.961Z,17.45
2023-04-03T16:21:56.833Z,17.44
2023-04-03T16:24:58.228Z,17.44
2023-04-03T16:27:59.959Z,17.45
2023-04-03T16:31:02.114Z,17.46
2023-04-03T16:34:03.753Z,17.45
2023-04-03T16:37:05.228Z,17.44
2023-04-03T16:40:07.803Z,17.44
2023-04-03T16:43:09.162Z,17.44
2023-04-03T16:46:10.703Z,17.44
2023-04-03T16:49:12.219Z,17.45
2023-04-03T16:52:13.777Z,17.45
2023-04-03T16:55:15.389Z,17.46
2023-04-03T16:58:16.963Z,17.45
2023-04-03T17:01:19.300Z,17.47
2023-04-03T17:04:20.767Z,17.50
2023-04-03T17:07:22.992Z,17.52
2023-04-03T17:10:24.832Z,17.53
2023-04-03T17:13:32.054Z,17.55
2023-04-03T17:16:37.769Z,17.57
2023-04-03T17:19:40.182Z,17.58
2023-04-03T17:22:41.679Z,17.58
2023-04-03T17:25:43.116Z,17.57
2023-04-03T17:28:45.624Z,17.55
2023-04-03T17:31:48.143Z,17.55
2023-04-03T17:34:49.670Z,17.56
2023-04-03T17:37:51.165Z,17.54
2023-04-03T17:40:52.710Z,17.54
2023-04-03T17:43:56.834Z,17.55
2023-04-03T17:46:58.265Z,17.56
2023-04-03T17:49:59.695Z,17.55
2023-04-03T17:53:01.077Z,17.57
2023-04-03T17:56:10.489Z,17.56
2023-04-03T17:59:13.133Z,17.56
2023-04-03T18:02:14.772Z,17.57
2023-04-03T18:05:16.224Z,17.57
2023-04-03T18:08:17.665Z,17.58
2023-04-03T18:11:19.854Z,17.58
2023-04-03T18:14:22.865Z,17.59
2023-04-03T18:17:24.342Z,17.60
2023-04-03T18:20:25.769Z,17.60
2023-04-03T18:23:28.680Z,17.60
2023-04-03T18:26:30.231Z,17.60
2023-04-03T18:29:33.498Z,17.60
2023-04-03T18:32:35.047Z,17.59
2023-04-03T18:35:36.510Z,17.60
2023-04-03T18:38:38.357Z,17.62
2023-04-03T18:41:40.021Z,17.63
2023-04-03T18:44:42.313Z,17.63
2023-04-03T18:47:43.806Z,17.55
2023-04-03T18:50:45.696Z,17.52
2023-04-03T18:53:47.396Z,17.52
2023-04-03T18:56:48.799Z,17.52
2023-04-03T18:59:50.222Z,17.52
2023-04-03T19:02:51.885Z,17.54
2023-04-03T19:05:53.359Z,17.57
2023-04-03T19:08:54.889Z,17.59
2023-04-03T19:11:56.345Z,17.59
2023-04-03T19:14:57.728Z,17.60
2023-04-03T19:17:59.191Z,17.60
2023-04-03T19:21:01.818Z,17.62
2023-04-03T19:24:03.275Z,17.62
2023-04-03T19:27:04.690Z,17.62
2023-04-03T19:30:07.100Z,17.64
2023-04-03T19:33:08.884Z,17.65
2023-04-03T19:36:10.994Z,17.66
2023-04-03T19:39:14.768Z,17.67
2023-04-03T19:42:18.796Z,17.68
2023-04-03T19:45:20.317Z,17.65
2023-04-03T19:48:21.698Z,17.61
2023-04-03T19:51:23.167Z,17.55
2023-04-03T19:54:24.674Z,17.51
2023-04-03T19:57:27.029Z,17.49
2023-04-03T20:00:29.692Z,17.49
2023-04-03T20:03:31.352Z,17.49
2023-04-03T20:06:32.765Z,17.50
2023-04-03T20:09:34.550Z,17.50
2023-04-03T20:12:37.456Z,17.53
2023-04-03T20:15:41.994Z,17.57
2023-04-03T20:18:43.465Z,17.61
2023-04-03T20:21:45.085Z,17.63
2023-04-03T20:24:46.688Z,17.64
2023-04-03T20:27:48.528Z,17.64
2023-04-03T20:30:51.311Z,17.66
2023-04-03T20:33:53.296Z,17.66
2023-04-03T20:36:54.982Z,17.66
2023-04-03T20:39:56.462Z,17.67
2023-04-03T20:42:58.126Z,17.67
2023-04-03T20:46:01.334Z,17.68
2023-04-03T20:49:02.746Z,17.69
2023-04-03T20:52:05.353Z,17.69
2023-04-03T20:55:07.071Z,17.69
2023-04-03T20:58:08.539Z,17.68
2023-04-03T21:01:18.060Z,17.66
2023-04-03T21:04:26.480Z,17.66
2023-04-03T21:07:46.720Z,17.64
2023-04-03T21:11:06.795Z,17.62
2023-04-03T21:14:31.586Z,17.60
2023-04-03T21:17:33.281Z,17.59
2023-04-03T21:20:34.811Z,17.57
2023-04-03T21:23:36.219Z,17.55
2023-04-03T21:26:39.122Z,17.53
2023-04-03T21:29:40.525Z,17.53
2023-04-03T21:32:41.987Z,17.51
2023-04-03T21:35:43.401Z,17.51
2023-04-03T21:38:45.925Z,17.46
2023-04-03T21:41:48.788Z,17.44
2023-04-03T21:44:50.283Z,17.41
2023-04-03T21:47:51.884Z,17.39
2023-04-03T21:50:53.619Z,17.36
2023-04-03T21:53:55.391Z,17.35
2023-04-03T21:56:56.887Z,17.32
2023-04-03T21:59:58.673Z,17.31
2023-04-03T22:03:10.129Z,17.29
2023-04-03T22:06:12.690Z,17.27
2023-04-03T22:09:14.215Z,17.26
2023-04-03T22:12:15.618Z,17.24
2023-04-03T22:15:17.593Z,17.22
2023-04-03T22:18:18.975Z,17.21
2023-04-03T22:21:21.327Z,17.20
2023-04-03T22:24:22.793Z,17.18
2023-04-03T22:27:24.135Z,17.17
2023-04-03T22:30:25.886Z,17.14
2023-04-03T22:33:27.431Z,17.14
2023-04-03T22:36:28.827Z,17.13
2023-04-03T22:39:30.244Z,17.11
2023-04-03T22:42:31.631Z,17.09
2023-04-03T22:45:33.690Z,17.08
2023-04-03T22:48:35.452Z,17.07
2023-04-03T22:51:36.910Z,17.05
2023-04-03T22:54:38.282Z,17.04
2023-04-03T22:57:39.709Z,17.02
2023-04-03T23:00:44.441Z,17.00
2023-04-03T23:03:46.130Z,16.99
2023-04-03T23:06:47.557Z,16.98
2023-04-03T23:09:49.023Z,16.97
2023-04-03T23:12:50.417Z,16.95
2023-04-03T23:15:58.564Z,16.95
2023-04-03T23:19:00.608Z,16.93
2023-04-03T23:22:02.003Z,16.93
2023-04-03T23:25:03.547Z,16.93
2023-04-03T23:28:05.013Z,16.91
2023-04-03T23:31:07.016Z,16.91
2023-04-03T23:34:08.645Z,16.91
2023-04-03T23:37:13.127Z,16.91
2023-04-03T23:40:14.628Z,16.89
2023-04-03T23:43:16.154Z,16.89
2023-04-03T23:46:18.174Z,16.88
2023-04-03T23:49:19.633Z,16.87
2023-04-03T23:52:21.097Z,16.85
2023-04-03T23:55:22.808Z,16.85
2023-04-03T23:58:24.304Z,16.84
